sensor_id;sensor_type;location;lat;lon;timestamp;P1;durP1;ratioP1;P2;durP2;ratioP2
38427;SDS011;24211;49.980;19.776;2022-09-09T00:04:09;2.92;;;1.67;;
38427;SDS011;24211;49.980;19.776;2022-09-09T00:10:09;4.20;;;1.85;;
38427;SDS011;24211;49.980;19.776;2022-09-09T00:12:59;5.97;;;1.77;;
38427;SDS011;24211;49.980;19.776;2022-09-09T00:16:10;3.92;;;1.48;;
38427;SDS011;24211;49.980;19.776;2022-09-09T00:21:26;3.78;;;1.85;;
38427;SDS011;24211;49.980;19.776;2022-09-09T00:24:12;4.47;;;1.70;;
38427;SDS011;24211;49.980;19.776;2022-09-09T00:26:53;4.60;;;1.98;;
38427;SDS011;24211;49.980;19.776;2022-09-09T00:29:33;5.30;;;1.80;;
38427;SDS011;24211;49.980;19.776;2022-09-09T00:32:30;5.18;;;2.05;;
38427;SDS011;24211;49.980;19.776;2022-09-09T00:35:10;4.57;;;1.65;;
38427;SDS011;24211;49.980;19.776;2022-09-09T00:38:02;4.63;;;1.80;;
38427;SDS011;24211;49.980;19.776;2022-09-09T00:43:53;3.55;;;1.80;;
38427;SDS011;24211;49.980;19.776;2022-09-09T00:49:39;5.28;;;2.00;;
38427;SDS011;24211;49.980;19.776;2022-09-09T00:56:12;3.65;;;1.60;;
38427;SDS011;24211;49.980;19.776;2022-09-09T00:58:49;3.60;;;1.65;;
38427;SDS011;24211;49.980;19.776;2022-09-09T01:01:31;3.83;;;1.60;;
38427;SDS011;24211;49.980;19.776;2022-09-09T01:03:59;3.10;;;1.40;;
38427;SDS011;24211;49.980;19.776;2022-09-09T01:06:29;3.50;;;1.50;;
38427;SDS011;24211;49.980;19.776;2022-09-09T01:09:02;4.47;;;1.67;;
38427;SDS011;24211;49.980;19.776;2022-09-09T01:14:50;4.25;;;1.73;;
38427;SDS011;24211;49.980;19.776;2022-09-09T01:17:31;3.05;;;1.60;;
38427;SDS011;24211;49.980;19.776;2022-09-09T01:26:19;2.65;;;1.50;;
38427;SDS011;24211;49.980;19.776;2022-09-09T01:29:01;3.35;;;1.50;;
38427;SDS011;24211;49.980;19.776;2022-09-09T01:34:36;2.55;;;1.30;;
38427;SDS011;24211;49.980;19.776;2022-09-09T01:37:07;3.08;;;1.40;;
38427;SDS011;24211;49.980;19.776;2022-09-09T01:39:40;3.30;;;1.60;;
38427;SDS011;24211;49.980;19.776;2022-09-09T01:42:14;2.65;;;1.40;;
38427;SDS011;24211;49.980;19.776;2022-09-09T01:44:44;3.05;;;1.40;;
38427;SDS011;24211;49.980;19.776;2022-09-09T01:47:11;2.63;;;1.38;;
38427;SDS011;24211;49.980;19.776;2022-09-09T01:49:57;2.92;;;1.50;;
38427;SDS011;24211;49.980;19.776;2022-09-09T01:52:28;2.90;;;1.42;;
38427;SDS011;24211;49.980;19.776;2022-09-09T01:54:58;2.20;;;1.10;;
38427;SDS011;24211;49.980;19.776;2022-09-09T01:57:33;2.28;;;1.30;;
38427;SDS011;24211;49.980;19.776;2022-09-09T02:00:22;2.65;;;1.10;;
38427;SDS011;24211;49.980;19.776;2022-09-09T02:08:50;2.45;;;1.27;;
38427;SDS011;24211;49.980;19.776;2022-09-09T02:11:25;1.90;;;1.17;;
38427;SDS011;24211;49.980;19.776;2022-09-09T02:14:16;2.78;;;1.40;;
38427;SDS011;24211;49.980;19.776;2022-09-09T02:16:56;9.20;;;1.98;;
38427;SDS011;24211;49.980;19.776;2022-09-09T02:20:05;16.35;;;2.10;;
38427;SDS011;24211;49.980;19.776;2022-09-09T02:22:54;11.10;;;2.33;;
38427;SDS011;24211;49.980;19.776;2022-09-09T02:25:24;12.95;;;2.22;;
38427;SDS011;24211;49.980;19.776;2022-09-09T02:28:06;9.60;;;1.58;;
38427;SDS011;24211;49.980;19.776;2022-09-09T02:30:37;9.68;;;1.80;;
38427;SDS011;24211;49.980;19.776;2022-09-09T02:33:08;5.90;;;1.60;;
38427;SDS011;24211;49.980;19.776;2022-09-09T02:35:45;9.13;;;1.83;;
38427;SDS011;24211;49.980;19.776;2022-09-09T02:38:17;9.43;;;1.60;;
38427;SDS011;24211;49.980;19.776;2022-09-09T02:40:57;6.28;;;1.70;;
38427;SDS011;24211;49.980;19.776;2022-09-09T02:43:30;7.97;;;1.90;;
38427;SDS011;24211;49.980;19.776;2022-09-09T02:51:42;7.40;;;1.55;;
38427;SDS011;24211;49.980;19.776;2022-09-09T02:54:46;3.60;;;1.30;;
38427;SDS011;24211;49.980;19.776;2022-09-09T02:57:27;7.85;;;1.65;;
38427;SDS011;24211;49.980;19.776;2022-09-09T03:00:00;6.05;;;1.33;;
38427;SDS011;24211;49.980;19.776;2022-09-09T03:02:31;2.63;;;1.02;;
38427;SDS011;24211;49.980;19.776;2022-09-09T03:05:05;4.43;;;1.35;;
38427;SDS011;24211;49.980;19.776;2022-09-09T03:07:33;2.50;;;1.00;;
38427;SDS011;24211;49.980;19.776;2022-09-09T03:10:01;2.60;;;0.93;;
38427;SDS011;24211;49.980;19.776;2022-09-09T03:12:29;2.45;;;1.10;;
38427;SDS011;24211;49.980;19.776;2022-09-09T03:14:56;3.00;;;1.00;;
38427;SDS011;24211;49.980;19.776;2022-09-09T03:17:23;2.88;;;1.05;;
38427;SDS011;24211;49.980;19.776;2022-09-09T03:19:53;2.70;;;1.08;;
38427;SDS011;24211;49.980;19.776;2022-09-09T03:22:21;1.90;;;0.90;;
38427;SDS011;24211;49.980;19.776;2022-09-09T03:24:49;3.08;;;1.10;;
38427;SDS011;24211;49.980;19.776;2022-09-09T03:27:17;2.90;;;0.90;;
38427;SDS011;24211;49.980;19.776;2022-09-09T03:29:46;2.90;;;1.10;;
38427;SDS011;24211;49.980;19.776;2022-09-09T03:32:19;3.10;;;1.00;;
38427;SDS011;24211;49.980;19.776;2022-09-09T03:34:49;4.93;;;1.10;;
38427;SDS011;24211;49.980;19.776;2022-09-09T03:37:16;4.43;;;1.10;;
38427;SDS011;24211;49.980;19.776;2022-09-09T03:39:49;4.18;;;1.20;;
38427;SDS011;24211;49.980;19.776;2022-09-09T03:42:17;4.18;;;1.02;;
38427;SDS011;24211;49.980;19.776;2022-09-09T03:44:47;3.35;;;1.02;;
38427;SDS011;24211;49.980;19.776;2022-09-09T03:47:19;4.97;;;1.40;;
38427;SDS011;24211;49.980;19.776;2022-09-09T03:49:51;4.82;;;1.30;;
38427;SDS011;24211;49.980;19.776;2022-09-09T03:52:18;5.28;;;1.20;;
38427;SDS011;24211;49.980;19.776;2022-09-09T03:54:51;3.90;;;1.25;;
38427;SDS011;24211;49.980;19.776;2022-09-09T03:57:21;3.75;;;1.15;;
38427;SDS011;24211;49.980;19.776;2022-09-09T03:59:48;3.78;;;1.10;;
38427;SDS011;24211;49.980;19.776;2022-09-09T04:02:15;2.33;;;1.00;;
38427;SDS011;24211;49.980;19.776;2022-09-09T04:04:43;2.80;;;1.13;;
38427;SDS011;24211;49.980;19.776;2022-09-09T04:07:11;2.55;;;1.20;;
38427;SDS011;24211;49.980;19.776;2022-09-09T04:09:39;3.42;;;0.98;;
38427;SDS011;24211;49.980;19.776;2022-09-09T04:12:07;4.00;;;1.10;;
38427;SDS011;24211;49.980;19.776;2022-09-09T04:14:34;3.65;;;1.17;;
38427;SDS011;24211;49.980;19.776;2022-09-09T04:17:04;4.20;;;1.10;;
38427;SDS011;24211;49.980;19.776;2022-09-09T04:19:33;4.97;;;0.95;;
38427;SDS011;24211;49.980;19.776;2022-09-09T04:22:01;2.90;;;1.13;;
38427;SDS011;24211;49.980;19.776;2022-09-09T04:24:28;3.15;;;1.25;;
38427;SDS011;24211;49.980;19.776;2022-09-09T04:26:57;4.63;;;1.52;;
38427;SDS011;24211;49.980;19.776;2022-09-09T04:29:24;5.93;;;1.10;;
38427;SDS011;24211;49.980;19.776;2022-09-09T04:31:51;3.60;;;1.20;;
38427;SDS011;24211;49.980;19.776;2022-09-09T04:34:19;2.55;;;1.02;;
38427;SDS011;24211;49.980;19.776;2022-09-09T04:36:47;3.15;;;1.02;;
38427;SDS011;24211;49.980;19.776;2022-09-09T04:39:14;2.03;;;1.10;;
38427;SDS011;24211;49.980;19.776;2022-09-09T04:41:41;2.17;;;1.10;;
38427;SDS011;24211;49.980;19.776;2022-09-09T04:44:09;2.33;;;1.08;;
38427;SDS011;24211;49.980;19.776;2022-09-09T04:46:36;1.83;;;1.00;;
38427;SDS011;24211;49.980;19.776;2022-09-09T04:49:04;2.30;;;1.20;;
38427;SDS011;24211;49.980;19.776;2022-09-09T04:51:33;2.47;;;1.20;;
38427;SDS011;24211;49.980;19.776;2022-09-09T04:54:01;2.30;;;1.30;;
38427;SDS011;24211;49.980;19.776;2022-09-09T04:56:30;2.55;;;1.25;;
38427;SDS011;24211;49.980;19.776;2022-09-09T04:58:59;2.85;;;1.30;;
38427;SDS011;24211;49.980;19.776;2022-09-09T05:01:37;3.25;;;1.50;;
38427;SDS011;24211;49.980;19.776;2022-09-09T05:04:05;2.33;;;1.25;;
38427;SDS011;24211;49.980;19.776;2022-09-09T05:06:33;4.47;;;1.40;;
38427;SDS011;24211;49.980;19.776;2022-09-09T05:09:01;3.67;;;1.48;;
38427;SDS011;24211;49.980;19.776;2022-09-09T05:11:31;3.63;;;1.58;;
38427;SDS011;24211;49.980;19.776;2022-09-09T05:14:37;3.67;;;1.70;;
38427;SDS011;24211;49.980;19.776;2022-09-09T05:17:06;3.97;;;1.40;;
38427;SDS011;24211;49.980;19.776;2022-09-09T05:19:36;3.20;;;1.60;;
38427;SDS011;24211;49.980;19.776;2022-09-09T05:22:03;2.97;;;1.58;;
38427;SDS011;24211;49.980;19.776;2022-09-09T05:24:41;3.28;;;1.30;;
38427;SDS011;24211;49.980;19.776;2022-09-09T05:27:08;3.10;;;1.42;;
38427;SDS011;24211;49.980;19.776;2022-09-09T05:29:39;3.03;;;1.38;;
38427;SDS011;24211;49.980;19.776;2022-09-09T05:32:11;3.90;;;1.45;;
38427;SDS011;24211;49.980;19.776;2022-09-09T05:34:43;3.20;;;1.58;;
38427;SDS011;24211;49.980;19.776;2022-09-09T05:37:11;3.05;;;1.35;;
38427;SDS011;24211;49.980;19.776;2022-09-09T05:39:38;5.45;;;1.70;;
38427;SDS011;24211;49.980;19.776;2022-09-09T05:42:06;2.70;;;1.52;;
38427;SDS011;24211;49.980;19.776;2022-09-09T05:44:33;4.35;;;1.80;;
38427;SDS011;24211;49.980;19.776;2022-09-09T05:47:02;2.83;;;1.45;;
38427;SDS011;24211;49.980;19.776;2022-09-09T05:49:30;2.75;;;1.40;;
38427;SDS011;24211;49.980;19.776;2022-09-09T05:51:59;4.13;;;1.70;;
38427;SDS011;24211;49.980;19.776;2022-09-09T05:54:26;2.90;;;1.40;;
38427;SDS011;24211;49.980;19.776;2022-09-09T05:56:54;2.55;;;1.45;;
38427;SDS011;24211;49.980;19.776;2022-09-09T05:59:22;2.85;;;1.52;;
38427;SDS011;24211;49.980;19.776;2022-09-09T06:01:53;2.53;;;1.30;;
38427;SDS011;24211;49.980;19.776;2022-09-09T06:04:34;2.90;;;1.30;;
38427;SDS011;24211;49.980;19.776;2022-09-09T06:07:02;3.25;;;1.50;;
38427;SDS011;24211;49.980;19.776;2022-09-09T06:09:30;3.78;;;1.58;;
38427;SDS011;24211;49.980;19.776;2022-09-09T06:11:58;2.85;;;1.50;;
38427;SDS011;24211;49.980;19.776;2022-09-09T06:14:25;2.65;;;1.50;;
38427;SDS011;24211;49.980;19.776;2022-09-09T06:16:56;3.60;;;1.60;;
38427;SDS011;24211;49.980;19.776;2022-09-09T06:21:58;3.83;;;1.60;;
38427;SDS011;24211;49.980;19.776;2022-09-09T06:24:27;2.38;;;1.23;;
38427;SDS011;24211;49.980;19.776;2022-09-09T06:26:58;3.67;;;1.40;;
38427;SDS011;24211;49.980;19.776;2022-09-09T06:29:28;3.67;;;1.50;;
38427;SDS011;24211;49.980;19.776;2022-09-09T06:31:55;2.47;;;1.50;;
38427;SDS011;24211;49.980;19.776;2022-09-09T06:34:26;3.78;;;1.40;;
38427;SDS011;24211;49.980;19.776;2022-09-09T06:36:56;2.72;;;1.50;;
38427;SDS011;24211;49.980;19.776;2022-09-09T06:39:29;2.42;;;1.20;;
38427;SDS011;24211;49.980;19.776;2022-09-09T06:41:56;4.57;;;1.40;;
38427;SDS011;24211;49.980;19.776;2022-09-09T06:44:51;3.55;;;1.40;;
38427;SDS011;24211;49.980;19.776;2022-09-09T06:47:35;4.05;;;1.40;;
38427;SDS011;24211;49.980;19.776;2022-09-09T06:50:03;2.58;;;1.40;;
38427;SDS011;24211;49.980;19.776;2022-09-09T06:52:33;2.25;;;1.40;;
38427;SDS011;24211;49.980;19.776;2022-09-09T06:55:01;2.30;;;1.50;;
38427;SDS011;24211;49.980;19.776;2022-09-09T06:57:31;3.17;;;1.60;;
38427;SDS011;24211;49.980;19.776;2022-09-09T07:00:07;3.25;;;1.42;;
38427;SDS011;24211;49.980;19.776;2022-09-09T07:02:36;3.08;;;1.40;;
38427;SDS011;24211;49.980;19.776;2022-09-09T07:05:06;3.00;;;1.55;;
38427;SDS011;24211;49.980;19.776;2022-09-09T07:07:34;4.18;;;2.00;;
38427;SDS011;24211;49.980;19.776;2022-09-09T07:10:03;3.53;;;1.70;;
38427;SDS011;24211;49.980;19.776;2022-09-09T07:12:31;2.38;;;1.50;;
38427;SDS011;24211;49.980;19.776;2022-09-09T07:14:59;2.88;;;1.40;;
38427;SDS011;24211;49.980;19.776;2022-09-09T07:17:27;2.85;;;1.48;;
38427;SDS011;24211;49.980;19.776;2022-09-09T07:19:56;3.25;;;1.63;;
38427;SDS011;24211;49.980;19.776;2022-09-09T07:22:24;3.03;;;1.67;;
38427;SDS011;24211;49.980;19.776;2022-09-09T07:24:52;2.85;;;1.40;;
38427;SDS011;24211;49.980;19.776;2022-09-09T07:27:19;2.15;;;1.30;;
38427;SDS011;24211;49.980;19.776;2022-09-09T07:29:48;2.60;;;1.50;;
38427;SDS011;24211;49.980;19.776;2022-09-09T07:32:15;2.70;;;1.30;;
38427;SDS011;24211;49.980;19.776;2022-09-09T07:34:44;2.58;;;1.50;;
38427;SDS011;24211;49.980;19.776;2022-09-09T07:37:12;3.03;;;1.45;;
38427;SDS011;24211;49.980;19.776;2022-09-09T07:39:42;4.07;;;1.63;;
38427;SDS011;24211;49.980;19.776;2022-09-09T07:42:11;2.33;;;1.50;;
38427;SDS011;24211;49.980;19.776;2022-09-09T07:44:39;5.40;;;1.30;;
38427;SDS011;24211;49.980;19.776;2022-09-09T07:47:12;2.70;;;1.30;;
38427;SDS011;24211;49.980;19.776;2022-09-09T07:49:48;3.00;;;1.30;;
38427;SDS011;24211;49.980;19.776;2022-09-09T07:52:21;2.67;;;1.42;;
38427;SDS011;24211;49.980;19.776;2022-09-09T07:54:53;2.00;;;1.40;;
38427;SDS011;24211;49.980;19.776;2022-09-09T07:57:20;2.20;;;1.17;;
38427;SDS011;24211;49.980;19.776;2022-09-09T07:59:48;2.65;;;1.30;;
38427;SDS011;24211;49.980;19.776;2022-09-09T08:02:17;2.53;;;1.33;;
38427;SDS011;24211;49.980;19.776;2022-09-09T08:04:44;2.08;;;1.30;;
38427;SDS011;24211;49.980;19.776;2022-09-09T08:07:13;3.00;;;1.35;;
38427;SDS011;24211;49.980;19.776;2022-09-09T08:09:48;2.63;;;1.30;;
38427;SDS011;24211;49.980;19.776;2022-09-09T08:12:21;1.55;;;0.95;;
38427;SDS011;24211;49.980;19.776;2022-09-09T08:14:49;2.17;;;1.10;;
38427;SDS011;24211;49.980;19.776;2022-09-09T08:17:18;3.13;;;1.20;;
38427;SDS011;24211;49.980;19.776;2022-09-09T08:19:46;1.88;;;1.20;;
38427;SDS011;24211;49.980;19.776;2022-09-09T08:22:19;4.00;;;1.40;;
38427;SDS011;24211;49.980;19.776;2022-09-09T08:24:46;1.73;;;1.10;;
38427;SDS011;24211;49.980;19.776;2022-09-09T08:27:14;2.28;;;1.27;;
38427;SDS011;24211;49.980;19.776;2022-09-09T08:29:41;2.50;;;1.10;;
38427;SDS011;24211;49.980;19.776;2022-09-09T08:32:08;1.85;;;1.13;;
38427;SDS011;24211;49.980;19.776;2022-09-09T08:34:38;2.50;;;1.20;;
38427;SDS011;24211;49.980;19.776;2022-09-09T08:37:11;1.85;;;1.10;;
38427;SDS011;24211;49.980;19.776;2022-09-09T08:39:39;2.38;;;1.10;;
38427;SDS011;24211;49.980;19.776;2022-09-09T08:47:50;2.08;;;1.10;;
38427;SDS011;24211;49.980;19.776;2022-09-09T08:50:40;2.05;;;1.13;;
38427;SDS011;24211;49.980;19.776;2022-09-09T08:58:49;1.63;;;1.05;;
38427;SDS011;24211;49.980;19.776;2022-09-09T09:01:42;2.22;;;1.00;;
38427;SDS011;24211;49.980;19.776;2022-09-09T09:10:53;1.52;;;1.00;;
38427;SDS011;24211;49.980;19.776;2022-09-09T09:19:12;2.38;;;0.88;;
38427;SDS011;24211;49.980;19.776;2022-09-09T09:24:27;1.63;;;0.80;;
38427;SDS011;24211;49.980;19.776;2022-09-09T09:27:14;1.60;;;0.90;;
38427;SDS011;24211;49.980;19.776;2022-09-09T09:29:51;6.00;;;1.10;;
38427;SDS011;24211;49.980;19.776;2022-09-09T09:35:50;3.65;;;1.00;;
38427;SDS011;24211;49.980;19.776;2022-09-09T09:38:19;5.50;;;1.13;;
38427;SDS011;24211;49.980;19.776;2022-09-09T09:41:13;3.10;;;1.08;;
38427;SDS011;24211;49.980;19.776;2022-09-09T09:43:41;2.92;;;1.00;;
38427;SDS011;24211;49.980;19.776;2022-09-09T09:46:21;3.15;;;1.20;;
38427;SDS011;24211;49.980;19.776;2022-09-09T09:48:57;2.10;;;0.80;;
38427;SDS011;24211;49.980;19.776;2022-09-09T09:51:29;2.03;;;0.80;;
38427;SDS011;24211;49.980;19.776;2022-09-09T09:54:12;1.17;;;0.80;;
38427;SDS011;24211;49.980;19.776;2022-09-09T09:57:09;1.48;;;0.75;;
38427;SDS011;24211;49.980;19.776;2022-09-09T09:59:41;2.75;;;0.80;;
38427;SDS011;24211;49.980;19.776;2022-09-09T10:02:40;1.15;;;0.70;;
38427;SDS011;24211;49.980;19.776;2022-09-09T10:05:20;1.45;;;0.90;;
38427;SDS011;24211;49.980;19.776;2022-09-09T10:08:02;2.13;;;0.88;;
38427;SDS011;24211;49.980;19.776;2022-09-09T10:13:36;1.33;;;0.77;;
38427;SDS011;24211;49.980;19.776;2022-09-09T10:35:25;1.67;;;0.80;;
38427;SDS011;24211;49.980;19.776;2022-09-09T10:38:20;1.20;;;0.60;;
38427;SDS011;24211;49.980;19.776;2022-09-09T10:40:47;1.15;;;0.70;;
38427;SDS011;24211;49.980;19.776;2022-09-09T10:46:41;1.50;;;0.70;;
38427;SDS011;24211;49.980;19.776;2022-09-09T10:49:32;0.85;;;0.60;;
38427;SDS011;24211;49.980;19.776;2022-09-09T10:55:24;2.28;;;0.70;;
38427;SDS011;24211;49.980;19.776;2022-09-09T10:58:09;1.70;;;0.73;;
38427;SDS011;24211;49.980;19.776;2022-09-09T11:00:44;2.25;;;0.60;;
38427;SDS011;24211;49.980;19.776;2022-09-09T11:03:27;12.68;;;1.50;;
38427;SDS011;24211;49.980;19.776;2022-09-09T11:05:57;11.52;;;1.30;;
38427;SDS011;24211;49.980;19.776;2022-09-09T11:08:41;4.20;;;1.23;;
38427;SDS011;24211;49.980;19.776;2022-09-09T11:11:12;3.05;;;0.70;;
38427;SDS011;24211;49.980;19.776;2022-09-09T11:17:11;2.97;;;0.63;;
38427;SDS011;24211;49.980;19.776;2022-09-09T11:19:46;1.65;;;0.75;;
38427;SDS011;24211;49.980;19.776;2022-09-09T11:22:26;3.55;;;0.80;;
38427;SDS011;24211;49.980;19.776;2022-09-09T11:25:03;2.30;;;0.70;;
38427;SDS011;24211;49.980;19.776;2022-09-09T11:31:05;1.05;;;0.60;;
38427;SDS011;24211;49.980;19.776;2022-09-09T11:42:39;0.98;;;0.60;;
38427;SDS011;24211;49.980;19.776;2022-09-09T11:45:10;1.15;;;0.80;;
38427;SDS011;24211;49.980;19.776;2022-09-09T11:47:57;1.33;;;0.80;;
38427;SDS011;24211;49.980;19.776;2022-09-09T11:50:28;0.70;;;0.60;;
38427;SDS011;24211;49.980;19.776;2022-09-09T11:55:41;0.90;;;0.60;;
38427;SDS011;24211;49.980;19.776;2022-09-09T12:00:41;1.67;;;0.70;;
38427;SDS011;24211;49.980;19.776;2022-09-09T12:06:18;1.42;;;0.50;;
38427;SDS011;24211;49.980;19.776;2022-09-09T12:09:08;2.00;;;0.60;;
38427;SDS011;24211;49.980;19.776;2022-09-09T12:11:47;1.00;;;0.52;;
38427;SDS011;24211;49.980;19.776;2022-09-09T12:14:23;2.05;;;0.63;;
38427;SDS011;24211;49.980;19.776;2022-09-09T12:19:59;1.17;;;0.63;;
38427;SDS011;24211;49.980;19.776;2022-09-09T12:40:03;1.25;;;0.50;;
38427;SDS011;24211;49.980;19.776;2022-09-09T12:42:53;1.20;;;0.50;;
38427;SDS011;24211;49.980;19.776;2022-09-09T12:45:24;0.63;;;0.45;;
38427;SDS011;24211;49.980;19.776;2022-09-09T12:47:58;1.02;;;0.55;;
38427;SDS011;24211;49.980;19.776;2022-09-09T12:50:34;0.75;;;0.50;;
38427;SDS011;24211;49.980;19.776;2022-09-09T12:53:10;0.90;;;0.50;;
38427;SDS011;24211;49.980;19.776;2022-09-09T12:55:57;0.95;;;0.50;;
38427;SDS011;24211;49.980;19.776;2022-09-09T12:58:30;0.98;;;0.50;;
38427;SDS011;24211;49.980;19.776;2022-09-09T13:03:33;0.50;;;0.40;;
38427;SDS011;24211;49.980;19.776;2022-09-09T13:06:12;2.50;;;0.57;;
38427;SDS011;24211;49.980;19.776;2022-09-09T13:08:58;1.48;;;0.50;;
38427;SDS011;24211;49.980;19.776;2022-09-09T13:11:34;0.70;;;0.50;;
38427;SDS011;24211;49.980;19.776;2022-09-09T13:17:17;0.73;;;0.50;;
38427;SDS011;24211;49.980;19.776;2022-09-09T13:19:51;0.70;;;0.50;;
38427;SDS011;24211;49.980;19.776;2022-09-09T13:22:21;0.63;;;0.50;;
38427;SDS011;24211;49.980;19.776;2022-09-09T13:25:02;1.20;;;0.60;;
38427;SDS011;24211;49.980;19.776;2022-09-09T13:27:40;1.02;;;0.60;;
38427;SDS011;24211;49.980;19.776;2022-09-09T13:30:26;0.63;;;0.47;;
38427;SDS011;24211;49.980;19.776;2022-09-09T13:35:47;0.60;;;0.50;;
38427;SDS011;24211;49.980;19.776;2022-09-09T13:38:17;1.70;;;0.57;;
38427;SDS011;24211;49.980;19.776;2022-09-09T13:41:01;0.50;;;0.45;;
38427;SDS011;24211;49.980;19.776;2022-09-09T13:43:42;0.77;;;0.50;;
38427;SDS011;24211;49.980;19.776;2022-09-09T13:51:40;0.93;;;0.50;;
38427;SDS011;24211;49.980;19.776;2022-09-09T13:54:14;0.82;;;0.47;;
38427;SDS011;24211;49.980;19.776;2022-09-09T13:56:44;1.50;;;0.50;;
38427;SDS011;24211;49.980;19.776;2022-09-09T13:59:16;1.10;;;0.60;;
38427;SDS011;24211;49.980;19.776;2022-09-09T14:02:09;0.63;;;0.40;;
38427;SDS011;24211;49.980;19.776;2022-09-09T14:04:36;1.00;;;0.60;;
38427;SDS011;24211;49.980;19.776;2022-09-09T14:07:03;0.60;;;0.50;;
38427;SDS011;24211;49.980;19.776;2022-09-09T14:09:31;0.50;;;0.40;;
38427;SDS011;24211;49.980;19.776;2022-09-09T14:11:58;0.80;;;0.50;;
38427;SDS011;24211;49.980;19.776;2022-09-09T14:14:26;0.93;;;0.50;;
38427;SDS011;24211;49.980;19.776;2022-09-09T14:16:53;1.20;;;0.68;;
38427;SDS011;24211;49.980;19.776;2022-09-09T14:19:20;1.45;;;0.70;;
38427;SDS011;24211;49.980;19.776;2022-09-09T14:21:48;1.20;;;0.57;;
38427;SDS011;24211;49.980;19.776;2022-09-09T14:24:16;0.60;;;0.50;;
38427;SDS011;24211;49.980;19.776;2022-09-09T14:26:43;0.77;;;0.50;;
38427;SDS011;24211;49.980;19.776;2022-09-09T14:29:12;0.80;;;0.50;;
38427;SDS011;24211;49.980;19.776;2022-09-09T14:31:39;1.00;;;0.50;;
38427;SDS011;24211;49.980;19.776;2022-09-09T14:34:06;1.08;;;0.60;;
38427;SDS011;24211;49.980;19.776;2022-09-09T14:36:33;0.73;;;0.60;;
38427;SDS011;24211;49.980;19.776;2022-09-09T14:39:03;2.15;;;0.70;;
38427;SDS011;24211;49.980;19.776;2022-09-09T14:41:30;1.20;;;0.57;;
38427;SDS011;24211;49.980;19.776;2022-09-09T14:43:58;1.13;;;0.60;;
38427;SDS011;24211;49.980;19.776;2022-09-09T14:46:26;1.50;;;0.50;;
38427;SDS011;24211;49.980;19.776;2022-09-09T14:48:53;1.15;;;0.60;;
38427;SDS011;24211;49.980;19.776;2022-09-09T14:51:22;0.98;;;0.60;;
38427;SDS011;24211;49.980;19.776;2022-09-09T14:53:52;1.02;;;0.60;;
38427;SDS011;24211;49.980;19.776;2022-09-09T14:56:23;1.95;;;0.70;;
38427;SDS011;24211;49.980;19.776;2022-09-09T14:58:54;1.25;;;0.70;;
38427;SDS011;24211;49.980;19.776;2022-09-09T15:01:23;1.50;;;0.70;;
38427;SDS011;24211;49.980;19.776;2022-09-09T15:03:55;1.23;;;0.70;;
38427;SDS011;24211;49.980;19.776;2022-09-09T15:06:29;1.42;;;0.70;;
38427;SDS011;24211;49.980;19.776;2022-09-09T15:09:01;1.70;;;0.80;;
38427;SDS011;24211;49.980;19.776;2022-09-09T15:11:30;2.83;;;0.70;;
38427;SDS011;24211;49.980;19.776;2022-09-09T15:14:05;1.40;;;0.80;;
38427;SDS011;24211;49.980;19.776;2022-09-09T15:16:35;2.72;;;0.63;;
38427;SDS011;24211;49.980;19.776;2022-09-09T15:19:03;1.45;;;0.70;;
38427;SDS011;24211;49.980;19.776;2022-09-09T15:21:31;1.63;;;0.75;;
38427;SDS011;24211;49.980;19.776;2022-09-09T15:24:02;1.35;;;0.77;;
38427;SDS011;24211;49.980;19.776;2022-09-09T15:26:30;1.45;;;0.80;;
38427;SDS011;24211;49.980;19.776;2022-09-09T15:28:58;1.70;;;0.90;;
38427;SDS011;24211;49.980;19.776;2022-09-09T15:31:27;1.90;;;0.90;;
38427;SDS011;24211;49.980;19.776;2022-09-09T15:33:58;1.45;;;0.85;;
38427;SDS011;24211;49.980;19.776;2022-09-09T15:36:33;1.85;;;0.90;;
38427;SDS011;24211;49.980;19.776;2022-09-09T15:39:05;1.98;;;0.90;;
38427;SDS011;24211;49.980;19.776;2022-09-09T15:41:39;1.35;;;0.90;;
38427;SDS011;24211;49.980;19.776;2022-09-09T15:44:07;2.03;;;1.00;;
38427;SDS011;24211;49.980;19.776;2022-09-09T15:46:58;1.47;;;0.90;;
38427;SDS011;24211;49.980;19.776;2022-09-09T15:49:26;1.50;;;0.80;;
38427;SDS011;24211;49.980;19.776;2022-09-09T15:51:54;2.08;;;0.80;;
38427;SDS011;24211;49.980;19.776;2022-09-09T15:54:32;1.70;;;0.95;;
38427;SDS011;24211;49.980;19.776;2022-09-09T15:57:05;1.75;;;0.90;;
38427;SDS011;24211;49.980;19.776;2022-09-09T15:59:38;2.80;;;1.00;;
38427;SDS011;24211;49.980;19.776;2022-09-09T16:02:06;2.17;;;1.00;;
38427;SDS011;24211;49.980;19.776;2022-09-09T16:04:36;1.88;;;0.90;;
38427;SDS011;24211;49.980;19.776;2022-09-09T16:07:05;1.15;;;0.80;;
38427;SDS011;24211;49.980;19.776;2022-09-09T16:09:32;2.05;;;0.98;;
38427;SDS011;24211;49.980;19.776;2022-09-09T16:12:02;1.50;;;0.90;;
38427;SDS011;24211;49.980;19.776;2022-09-09T16:14:35;2.08;;;1.05;;
38427;SDS011;24211;49.980;19.776;2022-09-09T16:17:02;1.75;;;0.90;;
38427;SDS011;24211;49.980;19.776;2022-09-09T16:19:31;2.05;;;0.90;;
38427;SDS011;24211;49.980;19.776;2022-09-09T16:21:59;1.30;;;0.90;;
38427;SDS011;24211;49.980;19.776;2022-09-09T16:24:27;1.67;;;0.80;;
38427;SDS011;24211;49.980;19.776;2022-09-09T16:26:54;1.40;;;0.93;;
38427;SDS011;24211;49.980;19.776;2022-09-09T16:29:22;2.95;;;1.00;;
38427;SDS011;24211;49.980;19.776;2022-09-09T16:31:53;1.30;;;0.80;;
38427;SDS011;24211;49.980;19.776;2022-09-09T16:34:27;1.90;;;1.00;;
38427;SDS011;24211;49.980;19.776;2022-09-09T16:36:54;1.83;;;0.93;;
38427;SDS011;24211;49.980;19.776;2022-09-09T16:39:22;2.40;;;1.08;;
38427;SDS011;24211;49.980;19.776;2022-09-09T16:41:50;2.65;;;1.25;;
38427;SDS011;24211;49.980;19.776;2022-09-09T16:44:18;4.70;;;2.47;;
38427;SDS011;24211;49.980;19.776;2022-09-09T16:46:46;4.28;;;2.10;;
38427;SDS011;24211;49.980;19.776;2022-09-09T16:49:15;4.80;;;2.03;;
38427;SDS011;24211;49.980;19.776;2022-09-09T16:51:47;3.70;;;1.77;;
38427;SDS011;24211;49.980;19.776;2022-09-09T16:54:19;3.78;;;2.05;;
38427;SDS011;24211;49.980;19.776;2022-09-09T16:56:48;3.63;;;1.98;;
38427;SDS011;24211;49.980;19.776;2022-09-09T16:59:16;4.13;;;2.15;;
38427;SDS011;24211;49.980;19.776;2022-09-09T17:01:47;3.90;;;2.15;;
38427;SDS011;24211;49.980;19.776;2022-09-09T17:04:18;4.13;;;2.42;;
38427;SDS011;24211;49.980;19.776;2022-09-09T17:06:51;4.00;;;2.55;;
38427;SDS011;24211;49.980;19.776;2022-09-09T17:09:20;4.38;;;2.60;;
38427;SDS011;24211;49.980;19.776;2022-09-09T17:11:50;5.22;;;2.60;;
38427;SDS011;24211;49.980;19.776;2022-09-09T17:14:19;4.65;;;2.25;;
38427;SDS011;24211;49.980;19.776;2022-09-09T17:16:50;5.23;;;2.53;;
38427;SDS011;24211;49.980;19.776;2022-09-09T17:19:17;4.90;;;2.80;;
38427;SDS011;24211;49.980;19.776;2022-09-09T17:21:45;4.15;;;2.53;;
38427;SDS011;24211;49.980;19.776;2022-09-09T17:24:33;4.72;;;2.53;;
38427;SDS011;24211;49.980;19.776;2022-09-09T17:27:05;4.18;;;2.50;;
38427;SDS011;24211;49.980;19.776;2022-09-09T17:29:32;4.15;;;2.55;;
38427;SDS011;24211;49.980;19.776;2022-09-09T17:32:02;4.60;;;2.70;;
38427;SDS011;24211;49.980;19.776;2022-09-09T17:34:32;4.57;;;2.50;;
38427;SDS011;24211;49.980;19.776;2022-09-09T17:37:01;4.28;;;2.50;;
38427;SDS011;24211;49.980;19.776;2022-09-09T17:39:28;4.35;;;2.25;;
38427;SDS011;24211;49.980;19.776;2022-09-09T17:41:56;4.60;;;2.25;;
38427;SDS011;24211;49.980;19.776;2022-09-09T17:44:23;4.50;;;2.42;;
38427;SDS011;24211;49.980;19.776;2022-09-09T17:46:50;5.15;;;2.38;;
38427;SDS011;24211;49.980;19.776;2022-09-09T17:49:18;4.57;;;2.08;;